UAL154 PHNL-PKMJ
Flight info
| Callsign | UAL154 |
|---|---|
| Flight time | 4h 48m |
| Altitude | 32000 |
| Route | OPIHI3 CHOKO R584 MAZZA/N0459F340 10N177E EFAHU |
| Aircraft | B38M/M-SDE1FGHILORVWXY/HB1 |
Departure
| Time | 2026-04-22 13:49 |
|---|---|
| Airport | Daniel K. Inouye International Airport (PHNL) |
Arrival
| Time | 2026-04-22 18:38 |
|---|---|
| Airport | Marshall Islands International Airport (PKMJ) |
| Time | Latitude | Longitude | Altitude | Speed | Heading |
|---|---|---|---|---|---|
| 2026-04-22 12:09 | 21.32869 | -157.91504 | 26 ft | 0 kts | 359° |
| 2026-04-22 13:24 | 21.32856 | -157.91504 | 26 ft | 4 kts | 359° |
| 2026-04-22 13:25 | 21.32828 | -157.91504 | 26 ft | 4 kts | 360° |
| 2026-04-22 13:25 | 21.32807 | -157.91503 | 26 ft | 4 kts | 345° |
| 2026-04-22 13:25 | 21.32784 | -157.91490 | 26 ft | 4 kts | 311° |
| 2026-04-22 13:25 | 21.32773 | -157.91466 | 26 ft | 4 kts | 273° |
| 2026-04-22 13:26 | 21.32773 | -157.91440 | 26 ft | 2 kts | 270° |
| 2026-04-22 13:26 | 21.32773 | -157.91437 | 26 ft | 3 kts | 270° |
| 2026-04-22 13:32 | 21.32773 | -157.91438 | 26 ft | 0 kts | 270° |
| 2026-04-22 13:32 | 21.32773 | -157.91450 | 26 ft | 4 kts | 270° |
| 2026-04-22 13:33 | 21.32773 | -157.91509 | 26 ft | 12 kts | 270° |
| 2026-04-22 13:33 | 21.32773 | -157.91618 | 26 ft | 15 kts | 270° |
| 2026-04-22 13:33 | 21.32773 | -157.91735 | 26 ft | 16 kts | 271° |
| 2026-04-22 13:33 | 21.32771 | -157.91857 | 26 ft | 17 kts | 259° |
| 2026-04-22 13:34 | 21.32720 | -157.91963 | 26 ft | 14 kts | 238° |
| 2026-04-22 13:34 | 21.32691 | -157.92049 | 26 ft | 7 kts | 267° |
| 2026-04-22 13:34 | 21.32692 | -157.92106 | 26 ft | 8 kts | 270° |
| 2026-04-22 13:34 | 21.32692 | -157.92183 | 27 ft | 13 kts | 270° |
| 2026-04-22 13:35 | 21.32692 | -157.92307 | 27 ft | 19 kts | 270° |
| 2026-04-22 13:35 | 21.32692 | -157.92443 | 27 ft | 16 kts | 270° |
| 2026-04-22 13:35 | 21.32692 | -157.92555 | 27 ft | 15 kts | 270° |
| 2026-04-22 13:35 | 21.32692 | -157.92671 | 27 ft | 16 kts | 270° |
| 2026-04-22 13:36 | 21.32722 | -157.92783 | 27 ft | 16 kts | 299° |
| 2026-04-22 13:36 | 21.32743 | -157.92902 | 27 ft | 17 kts | 270° |
| 2026-04-22 13:36 | 21.32743 | -157.93028 | 27 ft | 17 kts | 270° |
| 2026-04-22 13:36 | 21.32742 | -157.93157 | 27 ft | 18 kts | 270° |
| 2026-04-22 13:37 | 21.32742 | -157.93297 | 27 ft | 20 kts | 270° |
| 2026-04-22 13:37 | 21.32742 | -157.93401 | 27 ft | 22 kts | 270° |
| 2026-04-22 13:37 | 21.32742 | -157.93646 | 27 ft | 26 kts | 270° |
| 2026-04-22 13:37 | 21.32742 | -157.93768 | 27 ft | 25 kts | 270° |
| 2026-04-22 13:38 | 21.32741 | -157.93945 | 27 ft | 20 kts | 270° |
| 2026-04-22 13:38 | 21.32592 | -157.94151 | 27 ft | 19 kts | 208° |
| 2026-04-22 13:38 | 21.32487 | -157.94212 | 27 ft | 16 kts | 209° |
| 2026-04-22 13:39 | 21.32390 | -157.94271 | 27 ft | 16 kts | 209° |
| 2026-04-22 13:39 | 21.32289 | -157.94330 | 27 ft | 17 kts | 209° |
| 2026-04-22 13:39 | 21.32185 | -157.94392 | 27 ft | 17 kts | 209° |
| 2026-04-22 13:39 | 21.32076 | -157.94457 | 27 ft | 18 kts | 209° |
| 2026-04-22 13:40 | 21.31952 | -157.94531 | 27 ft | 23 kts | 209° |
| 2026-04-22 13:40 | 21.31815 | -157.94614 | 27 ft | 18 kts | 210° |
| 2026-04-22 13:40 | 21.31699 | -157.94657 | 27 ft | 16 kts | 186° |
| 2026-04-22 13:40 | 21.31585 | -157.94651 | 27 ft | 17 kts | 173° |
| 2026-04-22 13:41 | 21.31465 | -157.94635 | 27 ft | 18 kts | 173° |
| 2026-04-22 13:41 | 21.31326 | -157.94617 | 27 ft | 22 kts | 173° |
| 2026-04-22 13:41 | 21.31166 | -157.94596 | 27 ft | 22 kts | 173° |
| 2026-04-22 13:41 | 21.31047 | -157.94581 | 27 ft | 14 kts | 173° |
| 2026-04-22 13:42 | 21.30981 | -157.94553 | 27 ft | 9 kts | 127° |
| 2026-04-22 13:42 | 21.30963 | -157.94472 | 27 ft | 11 kts | 117° |
| 2026-04-22 13:42 | 21.30898 | -157.94449 | 27 ft | 10 kts | 179° |
| 2026-04-22 13:42 | 21.30880 | -157.94448 | 27 ft | 0 kts | 180° |
| 2026-04-22 13:43 | 21.30877 | -157.94448 | 27 ft | 0 kts | 180° |
| 2026-04-22 13:44 | 21.30872 | -157.94448 | 27 ft | 2 kts | 180° |
| 2026-04-22 13:44 | 21.30853 | -157.94448 | 27 ft | 5 kts | 180° |
| 2026-04-22 13:44 | 21.30833 | -157.94448 | 27 ft | 3 kts | 180° |
| 2026-04-22 13:45 | 21.30805 | -157.94448 | 27 ft | 3 kts | 180° |
| 2026-04-22 13:45 | 21.30794 | -157.94448 | 28 ft | 0 kts | 180° |
| 2026-04-22 13:45 | 21.30766 | -157.94448 | 28 ft | 8 kts | 180° |
| 2026-04-22 13:46 | 21.30699 | -157.94446 | 29 ft | 9 kts | 166° |
| 2026-04-22 13:46 | 21.30681 | -157.94409 | 30 ft | 0 kts | 88° |
| 2026-04-22 13:48 | 21.30681 | -157.94403 | 31 ft | 5 kts | 88° |
| 2026-04-22 13:48 | 21.30683 | -157.94117 | 30 ft | 76 kts | 90° |
| 2026-04-22 13:49 | 21.30682 | -157.93292 | 23 ft | 143 kts | 90° |
| 2026-04-22 13:49 | 21.30681 | -157.92025 | 82 ft | 191 kts | 91° |
| 2026-04-22 13:49 | 21.30629 | -157.90498 | 537 ft | 214 kts | 95° |
| 2026-04-22 13:49 | 21.30366 | -157.88970 | 1559 ft | 211 kts | 104° |
| 2026-04-22 13:50 | 21.29882 | -157.87448 | 2299 ft | 224 kts | 112° |
| 2026-04-22 13:50 | 21.29063 | -157.85903 | 2635 ft | 254 kts | 127° |
| 2026-04-22 13:50 | 21.27718 | -157.84600 | 3299 ft | 266 kts | 148° |
| 2026-04-22 13:50 | 21.25979 | -157.83905 | 4186 ft | 271 kts | 171° |
| 2026-04-22 13:51 | 21.24084 | -157.83975 | 5024 ft | 275 kts | 193° |
| 2026-04-22 13:51 | 21.22325 | -157.84762 | 5880 ft | 278 kts | 216° |
| 2026-04-22 13:51 | 21.20986 | -157.86237 | 6705 ft | 278 kts | 235° |
| 2026-04-22 13:51 | 21.19772 | -157.87859 | 7483 ft | 281 kts | 229° |
| 2026-04-22 13:52 | 21.18477 | -157.89431 | 8293 ft | 282 kts | 230° |
| 2026-04-22 13:52 | 21.17188 | -157.91011 | 9137 ft | 282 kts | 230° |
| 2026-04-22 13:52 | 21.15888 | -157.92611 | 9876 ft | 286 kts | 230° |
| 2026-04-22 13:52 | 21.14567 | -157.94242 | 10421 ft | 297 kts | 230° |
| 2026-04-22 13:53 | 21.13166 | -157.95971 | 10671 ft | 317 kts | 230° |
| 2026-04-22 13:53 | 21.11681 | -157.97805 | 10964 ft | 334 kts | 230° |
| 2026-04-22 13:53 | 21.10132 | -157.99723 | 11395 ft | 344 kts | 231° |
| 2026-04-22 13:53 | 21.08672 | -158.01746 | 12003 ft | 346 kts | 240° |
| 2026-04-22 13:54 | 21.07681 | -158.04103 | 12529 ft | 350 kts | 256° |
| 2026-04-22 13:54 | 21.07052 | -158.06635 | 13127 ft | 355 kts | 256° |
| 2026-04-22 13:54 | 21.06394 | -158.09199 | 13686 ft | 359 kts | 256° |
| 2026-04-22 13:54 | 21.05747 | -158.11798 | 14206 ft | 363 kts | 262° |
| 2026-04-22 13:55 | 21.05482 | -158.14477 | 14760 ft | 363 kts | 267° |
| 2026-04-22 13:55 | 21.05252 | -158.17179 | 15293 ft | 365 kts | 267° |
| 2026-04-22 13:55 | 21.05015 | -158.19890 | 15837 ft | 367 kts | 266° |
| 2026-04-22 13:55 | 21.04775 | -158.22619 | 16353 ft | 370 kts | 266° |
| 2026-04-22 13:56 | 21.04533 | -158.25366 | 16880 ft | 372 kts | 266° |
| 2026-04-22 13:56 | 21.04288 | -158.28128 | 17395 ft | 374 kts | 266° |
| 2026-04-22 13:56 | 21.04041 | -158.30904 | 17897 ft | 375 kts | 266° |
| 2026-04-22 13:56 | 21.03793 | -158.33693 | 18381 ft | 378 kts | 266° |
| 2026-04-22 13:57 | 21.03542 | -158.36500 | 18802 ft | 380 kts | 266° |
| 2026-04-22 13:57 | 21.03291 | -158.39320 | 19231 ft | 381 kts | 266° |
| 2026-04-22 13:57 | 21.03037 | -158.42149 | 19653 ft | 383 kts | 266° |
| 2026-04-22 13:57 | 21.02785 | -158.44956 | 20063 ft | 385 kts | 266° |
| 2026-04-22 13:58 | 21.02529 | -158.47811 | 20465 ft | 387 kts | 266° |
| 2026-04-22 13:58 | 21.02271 | -158.50679 | 20876 ft | 388 kts | 266° |
| 2026-04-22 13:58 | 21.02011 | -158.53560 | 21282 ft | 390 kts | 266° |
| 2026-04-22 13:58 | 21.01750 | -158.56455 | 21677 ft | 392 kts | 265° |
| 2026-04-22 13:59 | 21.01486 | -158.59364 | 22078 ft | 393 kts | 265° |
| 2026-04-22 13:59 | 21.01222 | -158.62280 | 22461 ft | 395 kts | 265° |
| 2026-04-22 13:59 | 21.00956 | -158.65209 | 22841 ft | 396 kts | 265° |
| 2026-04-22 13:59 | 21.00688 | -158.68153 | 23218 ft | 398 kts | 265° |
| 2026-04-22 14:00 | 21.00419 | -158.71106 | 23587 ft | 400 kts | 265° |
| 2026-04-22 14:00 | 21.00147 | -158.74074 | 23892 ft | 401 kts | 265° |
| 2026-04-22 14:00 | 20.99875 | -158.77049 | 24176 ft | 403 kts | 265° |
| 2026-04-22 14:00 | 20.99600 | -158.80042 | 24447 ft | 405 kts | 265° |
| 2026-04-22 14:01 | 20.99324 | -158.83046 | 24736 ft | 407 kts | 265° |
| 2026-04-22 14:01 | 20.99045 | -158.86069 | 25012 ft | 409 kts | 265° |
| 2026-04-22 14:01 | 20.98765 | -158.89106 | 25282 ft | 411 kts | 265° |
| 2026-04-22 14:01 | 20.98483 | -158.92158 | 25553 ft | 413 kts | 265° |
| 2026-04-22 14:02 | 20.98200 | -158.95224 | 25831 ft | 415 kts | 265° |
| 2026-04-22 14:02 | 20.97914 | -158.98303 | 26103 ft | 417 kts | 265° |
| 2026-04-22 14:02 | 20.97408 | -159.01362 | 26345 ft | 421 kts | 253° |
| 2026-04-22 14:02 | 20.96464 | -159.04328 | 26632 ft | 422 kts | 253° |
| 2026-04-22 14:03 | 20.95546 | -159.07323 | 26844 ft | 425 kts | 253° |
| 2026-04-22 14:03 | 20.94613 | -159.10324 | 27117 ft | 426 kts | 253° |
| 2026-04-22 14:03 | 20.93671 | -159.13340 | 27360 ft | 428 kts | 253° |
| 2026-04-22 14:03 | 20.92722 | -159.16369 | 27604 ft | 430 kts | 253° |
| 2026-04-22 14:04 | 20.91768 | -159.19406 | 27850 ft | 432 kts | 253° |
| 2026-04-22 14:04 | 20.90822 | -159.22420 | 28071 ft | 434 kts | 253° |
| 2026-04-22 14:04 | 20.89859 | -159.25485 | 28315 ft | 436 kts | 253° |
| 2026-04-22 14:04 | 20.88891 | -159.28563 | 28543 ft | 438 kts | 253° |
| 2026-04-22 14:05 | 20.87919 | -159.31651 | 28761 ft | 439 kts | 253° |
| 2026-04-22 14:05 | 20.86942 | -159.34753 | 28994 ft | 441 kts | 253° |
| 2026-04-22 14:05 | 20.84977 | -159.40989 | 29439 ft | 444 kts | 253° |
| 2026-04-22 14:06 | 20.83986 | -159.44128 | 29660 ft | 446 kts | 253° |
| 2026-04-22 14:06 | 20.82993 | -159.47273 | 29866 ft | 448 kts | 253° |
| 2026-04-22 14:06 | 20.81993 | -159.50437 | 30080 ft | 450 kts | 253° |
| 2026-04-22 14:06 | 20.80990 | -159.53607 | 30263 ft | 451 kts | 253° |
| 2026-04-22 14:07 | 20.79985 | -159.56786 | 30434 ft | 453 kts | 253° |
| 2026-04-22 14:07 | 20.78973 | -159.59980 | 30621 ft | 454 kts | 253° |
| 2026-04-22 14:07 | 20.77959 | -159.63179 | 30798 ft | 455 kts | 253° |
| 2026-04-22 14:07 | 20.76942 | -159.66387 | 30977 ft | 456 kts | 253° |
| 2026-04-22 14:08 | 20.75923 | -159.69597 | 31212 ft | 456 kts | 253° |
| 2026-04-22 14:08 | 20.74905 | -159.72803 | 31442 ft | 456 kts | 253° |
| 2026-04-22 14:08 | 20.73887 | -159.76006 | 31674 ft | 455 kts | 253° |
| 2026-04-22 14:08 | 20.72868 | -159.79209 | 31908 ft | 455 kts | 253° |
| 2026-04-22 14:09 | 20.71851 | -159.82407 | 32055 ft | 455 kts | 253° |
| 2026-04-22 14:09 | 20.69813 | -159.88804 | 32055 ft | 453 kts | 253° |
| 2026-04-22 14:10 | 20.67780 | -159.95174 | 32057 ft | 453 kts | 253° |
| 2026-04-22 14:10 | 20.65744 | -160.01549 | 32055 ft | 453 kts | 253° |
| 2026-04-22 14:11 | 20.63706 | -160.07919 | 32052 ft | 453 kts | 253° |
| 2026-04-22 14:11 | 20.61664 | -160.14290 | 32053 ft | 454 kts | 253° |
| 2026-04-22 14:12 | 20.59622 | -160.20656 | 32052 ft | 454 kts | 253° |
| 2026-04-22 14:12 | 20.57576 | -160.27023 | 32058 ft | 453 kts | 253° |
| 2026-04-22 14:13 | 20.55543 | -160.33339 | 32055 ft | 453 kts | 253° |
| 2026-04-22 14:13 | 20.53493 | -160.39703 | 32057 ft | 453 kts | 253° |
| 2026-04-22 14:14 | 20.51439 | -160.46068 | 32054 ft | 453 kts | 253° |
| 2026-04-22 14:14 | 20.49386 | -160.52424 | 32057 ft | 454 kts | 253° |
| 2026-04-22 14:15 | 20.47333 | -160.58769 | 32058 ft | 453 kts | 253° |
| 2026-04-22 14:15 | 20.45276 | -160.65117 | 32058 ft | 453 kts | 253° |
| 2026-04-22 14:16 | 20.43216 | -160.71468 | 32060 ft | 453 kts | 253° |
| 2026-04-22 14:16 | 20.41154 | -160.77815 | 32056 ft | 453 kts | 253° |
| 2026-04-22 14:17 | 20.39088 | -160.84160 | 32055 ft | 453 kts | 253° |
| 2026-04-22 14:17 | 20.36840 | -160.90439 | 32067 ft | 454 kts | 249° |
| 2026-04-22 14:18 | 20.34391 | -160.96650 | 32050 ft | 454 kts | 250° |
| 2026-04-22 14:18 | 20.31969 | -161.02861 | 32056 ft | 454 kts | 250° |
| 2026-04-22 14:19 | 20.29546 | -161.09076 | 32056 ft | 454 kts | 250° |
| 2026-04-22 14:19 | 20.27121 | -161.15289 | 32055 ft | 454 kts | 250° |
| 2026-04-22 14:20 | 20.23480 | -161.24602 | 32054 ft | 454 kts | 250° |
| 2026-04-22 14:20 | 20.21049 | -161.30812 | 32054 ft | 454 kts | 250° |
| 2026-04-22 14:21 | 20.17415 | -161.40079 | 32053 ft | 454 kts | 250° |
| 2026-04-22 14:22 | 20.13762 | -161.49379 | 32052 ft | 454 kts | 250° |
| 2026-04-22 14:23 | 20.10108 | -161.58666 | 32047 ft | 453 kts | 250° |
| 2026-04-22 14:23 | 20.07670 | -161.64850 | 32049 ft | 453 kts | 250° |
| 2026-04-22 14:24 | 20.05232 | -161.71029 | 32054 ft | 453 kts | 250° |
| 2026-04-22 14:24 | 20.02790 | -161.77209 | 32053 ft | 453 kts | 250° |
| 2026-04-22 14:25 | 20.00351 | -161.83375 | 32052 ft | 453 kts | 250° |
| 2026-04-22 14:25 | 19.97907 | -161.89549 | 32053 ft | 453 kts | 250° |
| 2026-04-22 14:26 | 19.95458 | -161.95725 | 32051 ft | 453 kts | 250° |
| 2026-04-22 14:26 | 19.93009 | -162.01894 | 32053 ft | 453 kts | 250° |
| 2026-04-22 14:27 | 19.90558 | -162.08062 | 32053 ft | 453 kts | 250° |
| 2026-04-22 14:27 | 19.88518 | -162.13190 | 32054 ft | 453 kts | 250° |
| 2026-04-22 14:28 | 19.86066 | -162.19347 | 32050 ft | 451 kts | 250° |
| 2026-04-22 14:28 | 19.83618 | -162.25485 | 32055 ft | 452 kts | 250° |
| 2026-04-22 14:29 | 19.81170 | -162.31620 | 32053 ft | 451 kts | 250° |
| 2026-04-22 14:29 | 19.78717 | -162.37757 | 32053 ft | 451 kts | 250° |
| 2026-04-22 14:30 | 19.76264 | -162.43887 | 32050 ft | 451 kts | 250° |
| 2026-04-22 14:30 | 19.73809 | -162.50017 | 32055 ft | 451 kts | 250° |
| 2026-04-22 14:31 | 19.71352 | -162.56145 | 32055 ft | 451 kts | 250° |
| 2026-04-22 14:31 | 19.68894 | -162.62269 | 32049 ft | 451 kts | 250° |
| 2026-04-22 14:32 | 19.66431 | -162.68398 | 32056 ft | 452 kts | 250° |
| 2026-04-22 14:32 | 19.64033 | -162.74554 | 32054 ft | 451 kts | 251° |
| 2026-04-22 14:33 | 19.61638 | -162.80704 | 32051 ft | 451 kts | 251° |
| 2026-04-22 14:33 | 19.59250 | -162.86828 | 32048 ft | 448 kts | 251° |
| 2026-04-22 14:34 | 19.56863 | -162.92942 | 32052 ft | 449 kts | 251° |
| 2026-04-22 14:34 | 19.54473 | -162.99055 | 32050 ft | 449 kts | 251° |
| 2026-04-22 14:35 | 19.52096 | -163.05129 | 32055 ft | 449 kts | 251° |
| 2026-04-22 14:35 | 19.49701 | -163.11239 | 32054 ft | 449 kts | 251° |
| 2026-04-22 14:36 | 19.47304 | -163.17351 | 32053 ft | 449 kts | 251° |
| 2026-04-22 14:36 | 19.44888 | -163.23502 | 32054 ft | 449 kts | 251° |
| 2026-04-22 14:37 | 19.42488 | -163.29605 | 32053 ft | 449 kts | 251° |
| 2026-04-22 14:37 | 19.40086 | -163.35709 | 32051 ft | 448 kts | 251° |
| 2026-04-22 14:38 | 19.37685 | -163.41801 | 32051 ft | 448 kts | 251° |
| 2026-04-22 14:38 | 19.35281 | -163.47894 | 32049 ft | 448 kts | 251° |
| 2026-04-22 14:39 | 19.32902 | -163.53916 | 32051 ft | 447 kts | 251° |
| 2026-04-22 14:39 | 19.30502 | -163.59986 | 32053 ft | 447 kts | 251° |
| 2026-04-22 14:40 | 19.26898 | -163.69086 | 32051 ft | 447 kts | 251° |
| 2026-04-22 14:40 | 19.24489 | -163.75163 | 32053 ft | 448 kts | 251° |
| 2026-04-22 14:41 | 19.22076 | -163.81239 | 32053 ft | 447 kts | 251° |
| 2026-04-22 14:41 | 19.19664 | -163.87308 | 32051 ft | 448 kts | 250° |
| 2026-04-22 14:42 | 19.17248 | -163.93381 | 32050 ft | 448 kts | 251° |
| 2026-04-22 14:42 | 19.14831 | -163.99450 | 32051 ft | 448 kts | 250° |
| 2026-04-22 14:43 | 19.12410 | -164.05521 | 32050 ft | 449 kts | 250° |
| 2026-04-22 14:43 | 19.09983 | -164.11600 | 32049 ft | 449 kts | 250° |
| 2026-04-22 14:44 | 19.07559 | -164.17664 | 32048 ft | 446 kts | 250° |
| 2026-04-22 14:44 | 19.05143 | -164.23703 | 32050 ft | 446 kts | 250° |
| 2026-04-22 14:45 | 19.02727 | -164.29734 | 32052 ft | 446 kts | 250° |
| 2026-04-22 14:45 | 19.00306 | -164.35774 | 32048 ft | 446 kts | 250° |
| 2026-04-22 14:46 | 18.97880 | -164.41815 | 32046 ft | 447 kts | 250° |
| 2026-04-22 14:46 | 18.95454 | -164.47853 | 32044 ft | 447 kts | 250° |
| 2026-04-22 14:47 | 18.93025 | -164.53891 | 32046 ft | 447 kts | 250° |
| 2026-04-22 14:47 | 18.90594 | -164.59927 | 32045 ft | 446 kts | 250° |
| 2026-04-22 14:48 | 18.88162 | -164.65958 | 32043 ft | 446 kts | 250° |
| 2026-04-22 14:48 | 18.85725 | -164.71995 | 32043 ft | 447 kts | 250° |
| 2026-04-22 14:49 | 18.83290 | -164.78023 | 32045 ft | 447 kts | 250° |
| 2026-04-22 14:49 | 18.80851 | -164.84049 | 32044 ft | 445 kts | 250° |
| 2026-04-22 14:50 | 18.78420 | -164.90054 | 32048 ft | 445 kts | 250° |
| 2026-04-22 14:50 | 18.75987 | -164.96055 | 32046 ft | 445 kts | 250° |
| 2026-04-22 14:51 | 18.73551 | -165.02059 | 32046 ft | 445 kts | 250° |
| 2026-04-22 14:51 | 18.71112 | -165.08062 | 32042 ft | 445 kts | 250° |
| 2026-04-22 14:52 | 18.68671 | -165.14063 | 32044 ft | 445 kts | 250° |
| 2026-04-22 14:52 | 18.66244 | -165.20025 | 32048 ft | 445 kts | 250° |
| 2026-04-22 14:53 | 18.63799 | -165.26025 | 32044 ft | 445 kts | 250° |
| 2026-04-22 14:53 | 18.61353 | -165.32021 | 32044 ft | 445 kts | 250° |
| 2026-04-22 14:54 | 18.58902 | -165.38021 | 32042 ft | 445 kts | 250° |
| 2026-04-22 14:54 | 18.56451 | -165.44016 | 32037 ft | 445 kts | 250° |
| 2026-04-22 14:55 | 18.53999 | -165.50006 | 32053 ft | 445 kts | 250° |
| 2026-04-22 14:55 | 18.51550 | -165.55984 | 32047 ft | 444 kts | 250° |
| 2026-04-22 14:56 | 18.49099 | -165.61959 | 32053 ft | 444 kts | 250° |
| 2026-04-22 14:56 | 18.46645 | -165.67935 | 32040 ft | 444 kts | 250° |
| 2026-04-22 14:57 | 18.44191 | -165.73908 | 32050 ft | 444 kts | 250° |
| 2026-04-22 14:57 | 18.41733 | -165.79881 | 32040 ft | 444 kts | 250° |
| 2026-04-22 14:58 | 18.39276 | -165.85845 | 32038 ft | 444 kts | 250° |
| 2026-04-22 14:58 | 18.36818 | -165.91807 | 32041 ft | 444 kts | 250° |
| 2026-04-22 14:59 | 18.34361 | -165.97761 | 32046 ft | 444 kts | 250° |
| 2026-04-22 14:59 | 18.31900 | -166.03719 | 32036 ft | 444 kts | 250° |
| 2026-04-22 15:00 | 18.29438 | -166.09669 | 32045 ft | 444 kts | 250° |
| 2026-04-22 15:00 | 18.26974 | -166.15620 | 32040 ft | 443 kts | 250° |
| 2026-04-22 15:01 | 18.24512 | -166.21562 | 32043 ft | 443 kts | 250° |
| 2026-04-22 15:01 | 18.22046 | -166.27506 | 32048 ft | 443 kts | 250° |
| 2026-04-22 15:02 | 18.19580 | -166.33442 | 32038 ft | 443 kts | 250° |
| 2026-04-22 15:02 | 18.17129 | -166.39337 | 32043 ft | 443 kts | 250° |
| 2026-04-22 15:03 | 18.14660 | -166.45271 | 32042 ft | 443 kts | 249° |
| 2026-04-22 15:03 | 18.12188 | -166.51206 | 32045 ft | 443 kts | 249° |
| 2026-04-22 15:04 | 18.09716 | -166.57134 | 32042 ft | 443 kts | 249° |
| 2026-04-22 15:04 | 18.07242 | -166.63061 | 32039 ft | 443 kts | 249° |
| 2026-04-22 15:05 | 18.04767 | -166.68983 | 32041 ft | 443 kts | 249° |
| 2026-04-22 15:05 | 18.02290 | -166.74905 | 32041 ft | 442 kts | 249° |
| 2026-04-22 15:06 | 17.99812 | -166.80824 | 32046 ft | 443 kts | 249° |
| 2026-04-22 15:06 | 17.97332 | -166.86743 | 32028 ft | 442 kts | 249° |
| 2026-04-22 15:07 | 17.94857 | -166.92641 | 32039 ft | 442 kts | 249° |
| 2026-04-22 15:07 | 17.92381 | -166.98537 | 32041 ft | 442 kts | 249° |
| 2026-04-22 15:08 | 17.89899 | -167.04443 | 32042 ft | 442 kts | 249° |
| 2026-04-22 15:08 | 17.87416 | -167.10342 | 32043 ft | 442 kts | 249° |
| 2026-04-22 15:09 | 17.84931 | -167.16242 | 32039 ft | 442 kts | 249° |
| 2026-04-22 15:09 | 17.82445 | -167.22139 | 32038 ft | 442 kts | 249° |
| 2026-04-22 15:10 | 17.79956 | -167.28036 | 32040 ft | 442 kts | 249° |
| 2026-04-22 15:10 | 17.77482 | -167.33893 | 32040 ft | 443 kts | 249° |
| 2026-04-22 15:11 | 17.74989 | -167.39788 | 32038 ft | 442 kts | 249° |
| 2026-04-22 15:11 | 17.72494 | -167.45681 | 32040 ft | 442 kts | 249° |
| 2026-04-22 15:12 | 17.69999 | -167.51571 | 32037 ft | 442 kts | 249° |
| 2026-04-22 15:12 | 17.67503 | -167.57455 | 32035 ft | 441 kts | 249° |
| 2026-04-22 15:13 | 17.65011 | -167.63326 | 32033 ft | 440 kts | 249° |
| 2026-04-22 15:13 | 17.62520 | -167.69187 | 32033 ft | 441 kts | 249° |
| 2026-04-22 15:14 | 17.60430 | -167.74102 | 32035 ft | 440 kts | 249° |
| 2026-04-22 15:14 | 17.57934 | -167.79966 | 32034 ft | 441 kts | 249° |
| 2026-04-22 15:15 | 17.55454 | -167.85785 | 32035 ft | 440 kts | 249° |
| 2026-04-22 15:15 | 17.52956 | -167.91643 | 32037 ft | 440 kts | 249° |
| 2026-04-22 15:16 | 17.50453 | -167.97503 | 32030 ft | 440 kts | 249° |
| 2026-04-22 15:16 | 17.47951 | -168.03358 | 32031 ft | 440 kts | 249° |
| 2026-04-22 15:17 | 17.45448 | -168.09211 | 32033 ft | 440 kts | 249° |
| 2026-04-22 15:17 | 17.42943 | -168.15062 | 32031 ft | 440 kts | 249° |
| 2026-04-22 15:18 | 17.40437 | -168.20909 | 32031 ft | 440 kts | 249° |
| 2026-04-22 15:18 | 17.37930 | -168.26752 | 32026 ft | 439 kts | 249° |
| 2026-04-22 15:19 | 17.35430 | -168.32576 | 32027 ft | 438 kts | 249° |
| 2026-04-22 15:19 | 17.32927 | -168.38398 | 32028 ft | 438 kts | 249° |
| 2026-04-22 15:20 | 17.30425 | -168.44214 | 32032 ft | 438 kts | 249° |
| 2026-04-22 15:20 | 17.27923 | -168.50026 | 32034 ft | 438 kts | 249° |
| 2026-04-22 15:21 | 17.25417 | -168.55838 | 32030 ft | 438 kts | 249° |
| 2026-04-22 15:21 | 17.22909 | -168.61652 | 32028 ft | 438 kts | 249° |
| 2026-04-22 15:22 | 17.20401 | -168.67460 | 32029 ft | 438 kts | 249° |
| 2026-04-22 15:22 | 17.17892 | -168.73265 | 32026 ft | 438 kts | 248° |
| 2026-04-22 15:23 | 17.15384 | -168.79062 | 32029 ft | 437 kts | 248° |
| 2026-04-22 15:23 | 17.12875 | -168.84856 | 32025 ft | 437 kts | 248° |
| 2026-04-22 15:24 | 17.10364 | -168.90649 | 32027 ft | 437 kts | 248° |
| 2026-04-22 15:24 | 17.07851 | -168.96441 | 32024 ft | 438 kts | 248° |
| 2026-04-22 15:25 | 17.05352 | -169.02197 | 32027 ft | 438 kts | 248° |
| 2026-04-22 15:25 | 17.02836 | -169.07984 | 32025 ft | 438 kts | 248° |
| 2026-04-22 15:26 | 17.00319 | -169.13771 | 32023 ft | 437 kts | 248° |
| 2026-04-22 15:26 | 16.97799 | -169.19558 | 32025 ft | 437 kts | 248° |
| 2026-04-22 15:27 | 16.95280 | -169.25339 | 32023 ft | 438 kts | 248° |
| 2026-04-22 15:27 | 16.92756 | -169.31124 | 32023 ft | 437 kts | 248° |
| 2026-04-22 15:28 | 16.90234 | -169.36901 | 32020 ft | 437 kts | 248° |
| 2026-04-22 15:28 | 16.87709 | -169.42678 | 32019 ft | 437 kts | 248° |
| 2026-04-22 15:29 | 16.85181 | -169.48458 | 32020 ft | 438 kts | 248° |
| 2026-04-22 15:30 | 16.81390 | -169.57114 | 32020 ft | 437 kts | 248° |
| 2026-04-22 15:30 | 16.78859 | -169.62887 | 32023 ft | 437 kts | 248° |
| 2026-04-22 15:31 | 16.76326 | -169.68658 | 32018 ft | 437 kts | 248° |
| 2026-04-22 15:31 | 16.73794 | -169.74425 | 32018 ft | 437 kts | 248° |
| 2026-04-22 15:32 | 16.71259 | -169.80191 | 32014 ft | 437 kts | 248° |
| 2026-04-22 15:32 | 16.68721 | -169.85958 | 32014 ft | 437 kts | 248° |
| 2026-04-22 15:33 | 16.66185 | -169.91717 | 32025 ft | 437 kts | 248° |
| 2026-04-22 15:33 | 16.63647 | -169.97476 | 32016 ft | 437 kts | 248° |
| 2026-04-22 15:34 | 16.61124 | -170.03194 | 32015 ft | 437 kts | 248° |
| 2026-04-22 15:34 | 16.58588 | -170.08937 | 32017 ft | 437 kts | 248° |
| 2026-04-22 15:35 | 16.56476 | -170.13717 | 32028 ft | 437 kts | 248° |
| 2026-04-22 15:35 | 16.53502 | -170.20441 | 32014 ft | 437 kts | 247° |
| 2026-04-22 15:36 | 16.50952 | -170.26202 | 32009 ft | 438 kts | 247° |
| 2026-04-22 15:36 | 16.48400 | -170.31960 | 32011 ft | 438 kts | 247° |
| 2026-04-22 15:37 | 16.45846 | -170.37720 | 32013 ft | 439 kts | 247° |
| 2026-04-22 15:37 | 16.43282 | -170.43495 | 32016 ft | 439 kts | 247° |
| 2026-04-22 15:38 | 16.40714 | -170.49274 | 32014 ft | 440 kts | 247° |
| 2026-04-22 15:38 | 16.36860 | -170.57940 | 32010 ft | 440 kts | 247° |
| 2026-04-22 15:39 | 16.34282 | -170.63728 | 32007 ft | 441 kts | 247° |
| 2026-04-22 15:39 | 16.31705 | -170.69513 | 32010 ft | 440 kts | 247° |
| 2026-04-22 15:40 | 16.29124 | -170.75299 | 32014 ft | 441 kts | 247° |
| 2026-04-22 15:40 | 16.26543 | -170.81083 | 32010 ft | 441 kts | 247° |
| 2026-04-22 15:41 | 16.23960 | -170.86864 | 32006 ft | 441 kts | 247° |
| 2026-04-22 15:41 | 16.21376 | -170.92644 | 32002 ft | 440 kts | 247° |
| 2026-04-22 15:42 | 16.18787 | -170.98429 | 32008 ft | 441 kts | 247° |
| 2026-04-22 15:42 | 16.16197 | -171.04213 | 32006 ft | 441 kts | 247° |
| 2026-04-22 15:43 | 16.13601 | -171.10005 | 32008 ft | 443 kts | 247° |
| 2026-04-22 15:43 | 16.10996 | -171.15813 | 32005 ft | 443 kts | 246° |
| 2026-04-22 15:44 | 16.08388 | -171.21619 | 32009 ft | 443 kts | 246° |
| 2026-04-22 15:44 | 16.05780 | -171.27424 | 32007 ft | 443 kts | 246° |
| 2026-04-22 15:45 | 16.03185 | -171.33193 | 32007 ft | 444 kts | 246° |
| 2026-04-22 15:45 | 16.00568 | -171.39007 | 32004 ft | 444 kts | 246° |
| 2026-04-22 15:46 | 15.97951 | -171.44816 | 32007 ft | 444 kts | 246° |
| 2026-04-22 15:46 | 15.95332 | -171.50624 | 32006 ft | 444 kts | 246° |
| 2026-04-22 15:47 | 15.92676 | -171.56419 | 32003 ft | 444 kts | 245° |
| 2026-04-22 15:47 | 15.89936 | -171.62169 | 32004 ft | 444 kts | 245° |
| 2026-04-22 15:48 | 15.87208 | -171.67927 | 32001 ft | 444 kts | 245° |
| 2026-04-22 15:48 | 15.84478 | -171.73688 | 32003 ft | 444 kts | 245° |
| 2026-04-22 15:49 | 15.81745 | -171.79452 | 32002 ft | 446 kts | 245° |
| 2026-04-22 15:49 | 15.79002 | -171.85231 | 32002 ft | 446 kts | 245° |
| 2026-04-22 15:50 | 15.76258 | -171.91007 | 31999 ft | 446 kts | 245° |
| 2026-04-22 15:50 | 15.73511 | -171.96785 | 31997 ft | 446 kts | 245° |
| 2026-04-22 15:51 | 15.70764 | -172.02559 | 31998 ft | 446 kts | 245° |
| 2026-04-22 15:51 | 15.68013 | -172.08335 | 31998 ft | 446 kts | 245° |
| 2026-04-22 15:52 | 15.65263 | -172.14105 | 31996 ft | 446 kts | 245° |
| 2026-04-22 15:52 | 15.62510 | -172.19876 | 31992 ft | 446 kts | 245° |
| 2026-04-22 15:53 | 15.59757 | -172.25643 | 31993 ft | 446 kts | 245° |
| 2026-04-22 15:53 | 15.57003 | -172.31409 | 31994 ft | 446 kts | 245° |
| 2026-04-22 15:54 | 15.54249 | -172.37169 | 31990 ft | 446 kts | 245° |
| 2026-04-22 15:54 | 15.51489 | -172.42935 | 31990 ft | 446 kts | 245° |
| 2026-04-22 15:55 | 15.48732 | -172.48693 | 31990 ft | 445 kts | 245° |
| 2026-04-22 15:55 | 15.45977 | -172.54441 | 31995 ft | 445 kts | 245° |
| 2026-04-22 15:56 | 15.43240 | -172.60146 | 31992 ft | 445 kts | 245° |
| 2026-04-22 15:56 | 15.40484 | -172.65887 | 31992 ft | 445 kts | 245° |
| 2026-04-22 15:57 | 15.37725 | -172.71628 | 31990 ft | 445 kts | 245° |
| 2026-04-22 15:57 | 15.34966 | -172.77366 | 31988 ft | 445 kts | 245° |
| 2026-04-22 15:58 | 15.32205 | -172.83104 | 31986 ft | 445 kts | 245° |
| 2026-04-22 15:58 | 15.29444 | -172.88839 | 31986 ft | 445 kts | 244° |
| 2026-04-22 15:59 | 15.26681 | -172.94571 | 31987 ft | 445 kts | 245° |
| 2026-04-22 15:59 | 15.23916 | -173.00303 | 31986 ft | 445 kts | 245° |
| 2026-04-22 16:00 | 15.21152 | -173.06029 | 31990 ft | 444 kts | 245° |
| 2026-04-22 16:00 | 15.18385 | -173.11755 | 31992 ft | 445 kts | 245° |
| 2026-04-22 16:01 | 15.16087 | -173.16509 | 31981 ft | 445 kts | 245° |
| 2026-04-22 16:01 | 15.13321 | -173.22225 | 31981 ft | 444 kts | 244° |
| 2026-04-22 16:02 | 15.10553 | -173.27941 | 31977 ft | 444 kts | 245° |
| 2026-04-22 16:02 | 15.07781 | -173.33660 | 31978 ft | 444 kts | 244° |
| 2026-04-22 16:03 | 15.05009 | -173.39378 | 31980 ft | 444 kts | 244° |
| 2026-04-22 16:03 | 15.02238 | -173.45088 | 31985 ft | 444 kts | 245° |
| 2026-04-22 16:04 | 14.99461 | -173.50804 | 31982 ft | 444 kts | 244° |
| 2026-04-22 16:04 | 14.96687 | -173.56511 | 31984 ft | 444 kts | 244° |
| 2026-04-22 16:05 | 14.93907 | -173.62225 | 31986 ft | 445 kts | 244° |
| 2026-04-22 16:05 | 14.91144 | -173.67901 | 31982 ft | 445 kts | 244° |
| 2026-04-22 16:06 | 14.88362 | -173.73612 | 31980 ft | 445 kts | 244° |
| 2026-04-22 16:06 | 14.85579 | -173.79319 | 31979 ft | 444 kts | 244° |
| 2026-04-22 16:07 | 14.82800 | -173.85013 | 31970 ft | 443 kts | 244° |
| 2026-04-22 16:07 | 14.80026 | -173.90694 | 31978 ft | 443 kts | 244° |
| 2026-04-22 16:08 | 14.77249 | -173.96377 | 31982 ft | 442 kts | 243° |
| 2026-04-22 16:08 | 14.74475 | -174.02049 | 31983 ft | 442 kts | 243° |
| 2026-04-22 16:09 | 14.71696 | -174.07728 | 31989 ft | 443 kts | 243° |
| 2026-04-22 16:09 | 14.68915 | -174.13405 | 31985 ft | 443 kts | 243° |
| 2026-04-22 16:10 | 14.66138 | -174.19071 | 31980 ft | 443 kts | 243° |
| 2026-04-22 16:10 | 14.63358 | -174.24738 | 31977 ft | 443 kts | 243° |
| 2026-04-22 16:11 | 14.60573 | -174.30410 | 31972 ft | 443 kts | 243° |
| 2026-04-22 16:11 | 14.57791 | -174.36075 | 31969 ft | 442 kts | 243° |
| 2026-04-22 16:12 | 14.55006 | -174.41738 | 31974 ft | 442 kts | 243° |
| 2026-04-22 16:12 | 14.52226 | -174.47389 | 31980 ft | 442 kts | 243° |
| 2026-04-22 16:13 | 14.49437 | -174.53054 | 31981 ft | 442 kts | 243° |
| 2026-04-22 16:13 | 14.46653 | -174.58705 | 31984 ft | 442 kts | 243° |
| 2026-04-22 16:14 | 14.43868 | -174.64354 | 31977 ft | 442 kts | 243° |
| 2026-04-22 16:14 | 14.41078 | -174.70006 | 31973 ft | 443 kts | 243° |
| 2026-04-22 16:15 | 14.38283 | -174.75667 | 31975 ft | 443 kts | 243° |
| 2026-04-22 16:15 | 14.35505 | -174.81288 | 31972 ft | 443 kts | 243° |
| 2026-04-22 16:16 | 14.32706 | -174.86949 | 31970 ft | 443 kts | 243° |
| 2026-04-22 16:16 | 14.29905 | -174.92608 | 31970 ft | 443 kts | 243° |
| 2026-04-22 16:17 | 14.27102 | -174.98269 | 31976 ft | 442 kts | 243° |
| 2026-04-22 16:17 | 14.24301 | -175.03919 | 31975 ft | 443 kts | 243° |
| 2026-04-22 16:18 | 14.21495 | -175.09577 | 31973 ft | 444 kts | 243° |
| 2026-04-22 16:18 | 14.18682 | -175.15244 | 31972 ft | 444 kts | 242° |
| 2026-04-22 16:19 | 14.15873 | -175.20903 | 31972 ft | 444 kts | 243° |
| 2026-04-22 16:19 | 14.13067 | -175.26545 | 31967 ft | 441 kts | 243° |
| 2026-04-22 16:20 | 14.10268 | -175.32174 | 31966 ft | 442 kts | 243° |
| 2026-04-22 16:20 | 14.07466 | -175.37804 | 31967 ft | 442 kts | 243° |
| 2026-04-22 16:21 | 14.04662 | -175.43432 | 31967 ft | 441 kts | 243° |
| 2026-04-22 16:21 | 14.01860 | -175.49054 | 31965 ft | 441 kts | 243° |
| 2026-04-22 16:22 | 13.97671 | -175.57450 | 31963 ft | 441 kts | 243° |
| 2026-04-22 16:23 | 13.93466 | -175.65870 | 31966 ft | 441 kts | 243° |
| 2026-04-22 16:23 | 13.90661 | -175.71482 | 31964 ft | 441 kts | 243° |
| 2026-04-22 16:24 | 13.86448 | -175.79902 | 31965 ft | 441 kts | 243° |
| 2026-04-22 16:25 | 13.83639 | -175.85510 | 31963 ft | 440 kts | 242° |
| 2026-04-22 16:25 | 13.79439 | -175.93894 | 31962 ft | 436 kts | 243° |
| 2026-04-22 16:26 | 13.76657 | -175.99438 | 31964 ft | 436 kts | 243° |
| 2026-04-22 16:26 | 13.73874 | -176.04983 | 31960 ft | 436 kts | 243° |
| 2026-04-22 16:27 | 13.71091 | -176.10523 | 31960 ft | 436 kts | 243° |
| 2026-04-22 16:27 | 13.68305 | -176.16067 | 31960 ft | 436 kts | 243° |
| 2026-04-22 16:28 | 13.65516 | -176.21612 | 31954 ft | 438 kts | 242° |
| 2026-04-22 16:28 | 13.62704 | -176.27199 | 31962 ft | 441 kts | 242° |
| 2026-04-22 16:29 | 13.59890 | -176.32787 | 31955 ft | 440 kts | 243° |
| 2026-04-22 16:29 | 13.57071 | -176.38379 | 31959 ft | 440 kts | 243° |
| 2026-04-22 16:30 | 13.54274 | -176.43926 | 31965 ft | 440 kts | 242° |
| 2026-04-22 16:30 | 13.51458 | -176.49506 | 31962 ft | 440 kts | 242° |
| 2026-04-22 16:31 | 13.48644 | -176.55076 | 31961 ft | 440 kts | 242° |
| 2026-04-22 16:31 | 13.45828 | -176.60650 | 31964 ft | 439 kts | 243° |
| 2026-04-22 16:32 | 13.43027 | -176.66188 | 31955 ft | 436 kts | 243° |
| 2026-04-22 16:32 | 13.40229 | -176.71718 | 31959 ft | 437 kts | 243° |
| 2026-04-22 16:33 | 13.37428 | -176.77249 | 31957 ft | 436 kts | 243° |
| 2026-04-22 16:33 | 13.34629 | -176.82773 | 31963 ft | 436 kts | 243° |
| 2026-04-22 16:34 | 13.31830 | -176.88294 | 31958 ft | 436 kts | 242° |
| 2026-04-22 16:34 | 13.29030 | -176.93813 | 31958 ft | 436 kts | 242° |
| 2026-04-22 16:35 | 13.26228 | -176.99333 | 31959 ft | 436 kts | 242° |
| 2026-04-22 16:35 | 13.23423 | -177.04852 | 31957 ft | 436 kts | 242° |
| 2026-04-22 16:36 | 13.20616 | -177.10374 | 31956 ft | 436 kts | 242° |
| 2026-04-22 16:36 | 13.17809 | -177.15893 | 31952 ft | 436 kts | 242° |
| 2026-04-22 16:37 | 13.15001 | -177.21410 | 31951 ft | 436 kts | 242° |
| 2026-04-22 16:37 | 13.12190 | -177.26927 | 31951 ft | 436 kts | 242° |
| 2026-04-22 16:38 | 13.09394 | -177.32414 | 31950 ft | 431 kts | 242° |
| 2026-04-22 16:38 | 13.06637 | -177.37820 | 31957 ft | 431 kts | 242° |
| 2026-04-22 16:39 | 13.03856 | -177.43268 | 31950 ft | 431 kts | 242° |
| 2026-04-22 16:39 | 13.01075 | -177.48716 | 31951 ft | 431 kts | 242° |
| 2026-04-22 16:40 | 12.98292 | -177.54161 | 31951 ft | 431 kts | 242° |
| 2026-04-22 16:41 | 12.94117 | -177.62325 | 31949 ft | 430 kts | 242° |
| 2026-04-22 16:41 | 12.91335 | -177.67762 | 31951 ft | 431 kts | 242° |
| 2026-04-22 16:42 | 12.88549 | -177.73201 | 31948 ft | 431 kts | 242° |
| 2026-04-22 16:42 | 12.85763 | -177.78639 | 31952 ft | 431 kts | 242° |
| 2026-04-22 16:43 | 12.82974 | -177.84077 | 31948 ft | 431 kts | 242° |
| 2026-04-22 16:43 | 12.80185 | -177.89515 | 31946 ft | 431 kts | 242° |
| 2026-04-22 16:44 | 12.77393 | -177.94951 | 31946 ft | 431 kts | 242° |
| 2026-04-22 16:44 | 12.74607 | -178.00376 | 31946 ft | 429 kts | 242° |
| 2026-04-22 16:45 | 12.71830 | -178.05778 | 31943 ft | 428 kts | 242° |
| 2026-04-22 16:45 | 12.69054 | -178.11174 | 31944 ft | 428 kts | 242° |
| 2026-04-22 16:46 | 12.66274 | -178.16576 | 31946 ft | 429 kts | 242° |
| 2026-04-22 16:46 | 12.63495 | -178.21975 | 31944 ft | 428 kts | 242° |
| 2026-04-22 16:47 | 12.60733 | -178.27333 | 31940 ft | 429 kts | 242° |
| 2026-04-22 16:47 | 12.58400 | -178.31859 | 31941 ft | 429 kts | 242° |
| 2026-04-22 16:48 | 12.55166 | -178.38129 | 31942 ft | 428 kts | 242° |
| 2026-04-22 16:48 | 12.52383 | -178.43521 | 31944 ft | 428 kts | 242° |
| 2026-04-22 16:49 | 12.49599 | -178.48908 | 31944 ft | 428 kts | 242° |
| 2026-04-22 16:49 | 12.46813 | -178.54299 | 31937 ft | 429 kts | 242° |
| 2026-04-22 16:50 | 12.44026 | -178.59689 | 31937 ft | 428 kts | 242° |
| 2026-04-22 16:50 | 12.41241 | -178.65071 | 31936 ft | 428 kts | 242° |
| 2026-04-22 16:51 | 12.38456 | -178.70449 | 31937 ft | 427 kts | 242° |
| 2026-04-22 16:51 | 12.36146 | -178.74911 | 31936 ft | 426 kts | 241° |
| 2026-04-22 16:52 | 12.33369 | -178.80268 | 31934 ft | 426 kts | 242° |
| 2026-04-22 16:52 | 12.30590 | -178.85626 | 31939 ft | 426 kts | 241° |
| 2026-04-22 16:53 | 12.27809 | -178.90986 | 31937 ft | 427 kts | 241° |
| 2026-04-22 16:53 | 12.25024 | -178.96349 | 31937 ft | 427 kts | 241° |
| 2026-04-22 16:54 | 12.22240 | -179.01707 | 31936 ft | 427 kts | 241° |
| 2026-04-22 16:54 | 12.19456 | -179.07063 | 31932 ft | 426 kts | 241° |
| 2026-04-22 16:55 | 12.16671 | -179.12417 | 31938 ft | 427 kts | 241° |
| 2026-04-22 16:55 | 12.13886 | -179.17768 | 31935 ft | 426 kts | 241° |
| 2026-04-22 16:56 | 12.11099 | -179.23122 | 31936 ft | 427 kts | 241° |
| 2026-04-22 16:56 | 12.08330 | -179.28438 | 31933 ft | 426 kts | 241° |
| 2026-04-22 16:57 | 12.05525 | -179.33818 | 31939 ft | 426 kts | 241° |
| 2026-04-22 16:57 | 12.02758 | -179.39124 | 31934 ft | 425 kts | 241° |
| 2026-04-22 16:58 | 11.99976 | -179.44455 | 31930 ft | 425 kts | 241° |
| 2026-04-22 16:58 | 11.97195 | -179.49781 | 31934 ft | 425 kts | 241° |
| 2026-04-22 16:59 | 11.94413 | -179.55108 | 31933 ft | 425 kts | 241° |
| 2026-04-22 16:59 | 11.91630 | -179.60432 | 31931 ft | 425 kts | 241° |
| 2026-04-22 17:00 | 11.88846 | -179.65755 | 31928 ft | 425 kts | 241° |
| 2026-04-22 17:00 | 11.84672 | -179.73729 | 31932 ft | 424 kts | 241° |
| 2026-04-22 17:01 | 11.81887 | -179.79047 | 31931 ft | 425 kts | 241° |
| 2026-04-22 17:01 | 11.79100 | -179.84365 | 31932 ft | 425 kts | 241° |
| 2026-04-22 17:02 | 11.76313 | -179.89681 | 31935 ft | 425 kts | 241° |
| 2026-04-22 17:02 | 11.73525 | -179.94995 | 31925 ft | 424 kts | 241° |
| 2026-04-22 17:03 | 11.70707 | 179.99711 | 31918 ft | 424 kts | 239° |
| 2026-04-22 17:03 | 11.67754 | 179.94498 | 31925 ft | 424 kts | 239° |
| 2026-04-22 17:04 | 11.64817 | 179.89273 | 31926 ft | 425 kts | 239° |
| 2026-04-22 17:04 | 11.61881 | 179.84049 | 31925 ft | 424 kts | 239° |
| 2026-04-22 17:05 | 11.58945 | 179.78828 | 31922 ft | 424 kts | 239° |
| 2026-04-22 17:05 | 11.56009 | 179.73608 | 31921 ft | 424 kts | 239° |
| 2026-04-22 17:06 | 11.53073 | 179.68392 | 31921 ft | 424 kts | 239° |
| 2026-04-22 17:06 | 11.50134 | 179.63174 | 31923 ft | 424 kts | 239° |
| 2026-04-22 17:07 | 11.47194 | 179.57955 | 31925 ft | 425 kts | 239° |
| 2026-04-22 17:07 | 11.44251 | 179.52735 | 31925 ft | 424 kts | 239° |
| 2026-04-22 17:08 | 11.41330 | 179.47554 | 31924 ft | 425 kts | 239° |
| 2026-04-22 17:08 | 11.38385 | 179.42336 | 31923 ft | 425 kts | 239° |
| 2026-04-22 17:09 | 11.35442 | 179.37124 | 31928 ft | 424 kts | 239° |
| 2026-04-22 17:09 | 11.32496 | 179.31909 | 31928 ft | 425 kts | 239° |
| 2026-04-22 17:10 | 11.29549 | 179.26695 | 31920 ft | 424 kts | 239° |
| 2026-04-22 17:10 | 11.26606 | 179.21492 | 31920 ft | 424 kts | 239° |
| 2026-04-22 17:11 | 11.23661 | 179.16285 | 31923 ft | 424 kts | 239° |
| 2026-04-22 17:11 | 11.20715 | 179.11081 | 31923 ft | 424 kts | 239° |
| 2026-04-22 17:12 | 11.17768 | 179.05878 | 31922 ft | 424 kts | 239° |
| 2026-04-22 17:12 | 11.14817 | 179.00671 | 31922 ft | 424 kts | 239° |
| 2026-04-22 17:13 | 11.11870 | 178.95471 | 31919 ft | 424 kts | 239° |
| 2026-04-22 17:13 | 11.08923 | 178.90277 | 31920 ft | 424 kts | 239° |
| 2026-04-22 17:14 | 11.05973 | 178.85078 | 31921 ft | 424 kts | 239° |
| 2026-04-22 17:14 | 11.03021 | 178.79879 | 31918 ft | 424 kts | 239° |
| 2026-04-22 17:15 | 11.00066 | 178.74677 | 31922 ft | 425 kts | 239° |
| 2026-04-22 17:15 | 10.97111 | 178.69478 | 31922 ft | 424 kts | 239° |
| 2026-04-22 17:16 | 10.94157 | 178.64283 | 31920 ft | 424 kts | 239° |
| 2026-04-22 17:16 | 10.91199 | 178.59084 | 31919 ft | 424 kts | 239° |
| 2026-04-22 17:17 | 10.88243 | 178.53890 | 31920 ft | 424 kts | 239° |
| 2026-04-22 17:17 | 10.85288 | 178.48701 | 31914 ft | 424 kts | 239° |
| 2026-04-22 17:18 | 10.82330 | 178.43510 | 31917 ft | 425 kts | 239° |
| 2026-04-22 17:18 | 10.79367 | 178.38312 | 31915 ft | 425 kts | 239° |
| 2026-04-22 17:19 | 10.73460 | 178.27958 | 31915 ft | 425 kts | 239° |
| 2026-04-22 17:20 | 10.67531 | 178.17574 | 31910 ft | 424 kts | 239° |
| 2026-04-22 17:21 | 10.63082 | 178.09790 | 31911 ft | 424 kts | 239° |
| 2026-04-22 17:22 | 10.58627 | 178.01999 | 31911 ft | 425 kts | 239° |
| 2026-04-22 17:23 | 10.54166 | 177.94206 | 31910 ft | 425 kts | 239° |
| 2026-04-22 17:23 | 10.49707 | 177.86421 | 31912 ft | 425 kts | 239° |
| 2026-04-22 17:24 | 10.46734 | 177.81232 | 31912 ft | 425 kts | 239° |
| 2026-04-22 17:24 | 10.43762 | 177.76049 | 31910 ft | 425 kts | 239° |
| 2026-04-22 17:25 | 10.40788 | 177.70863 | 31913 ft | 424 kts | 239° |
| 2026-04-22 17:25 | 10.37808 | 177.65671 | 31910 ft | 426 kts | 239° |
| 2026-04-22 17:26 | 10.34844 | 177.60510 | 31907 ft | 425 kts | 239° |
| 2026-04-22 17:26 | 10.31863 | 177.55319 | 31909 ft | 425 kts | 239° |
| 2026-04-22 17:27 | 10.28881 | 177.50131 | 31906 ft | 425 kts | 239° |
| 2026-04-22 17:27 | 10.25897 | 177.44939 | 31905 ft | 425 kts | 239° |
| 2026-04-22 17:28 | 10.22912 | 177.39750 | 31905 ft | 425 kts | 239° |
| 2026-04-22 17:28 | 10.19928 | 177.34566 | 31906 ft | 426 kts | 239° |
| 2026-04-22 17:29 | 10.16946 | 177.29387 | 31902 ft | 425 kts | 239° |
| 2026-04-22 17:29 | 10.13964 | 177.24208 | 31903 ft | 425 kts | 239° |
| 2026-04-22 17:30 | 10.10978 | 177.19028 | 31905 ft | 425 kts | 239° |
| 2026-04-22 17:30 | 10.07995 | 177.13853 | 31905 ft | 425 kts | 239° |
| 2026-04-22 17:31 | 10.05012 | 177.08680 | 31904 ft | 425 kts | 239° |
| 2026-04-22 17:31 | 10.02026 | 177.03504 | 31904 ft | 425 kts | 239° |
| 2026-04-22 17:32 | 9.99193 | 176.98247 | 31912 ft | 425 kts | 243° |
| 2026-04-22 17:32 | 9.96551 | 176.92884 | 31900 ft | 425 kts | 242° |
| 2026-04-22 17:33 | 9.93878 | 176.87522 | 31902 ft | 426 kts | 242° |
| 2026-04-22 17:33 | 9.91199 | 176.82157 | 31900 ft | 426 kts | 242° |
| 2026-04-22 17:34 | 9.88521 | 176.76797 | 31900 ft | 426 kts | 242° |
| 2026-04-22 17:34 | 9.85841 | 176.71435 | 31900 ft | 426 kts | 242° |
| 2026-04-22 17:35 | 9.83160 | 176.66075 | 31900 ft | 426 kts | 242° |
| 2026-04-22 17:35 | 9.80481 | 176.60720 | 31898 ft | 426 kts | 242° |
| 2026-04-22 17:36 | 9.77806 | 176.55377 | 31896 ft | 425 kts | 242° |
| 2026-04-22 17:36 | 9.75131 | 176.50036 | 31898 ft | 425 kts | 242° |
| 2026-04-22 17:37 | 9.72474 | 176.44734 | 31898 ft | 425 kts | 242° |
| 2026-04-22 17:37 | 9.69798 | 176.39395 | 31898 ft | 425 kts | 242° |
| 2026-04-22 17:38 | 9.67120 | 176.34055 | 31898 ft | 425 kts | 242° |
| 2026-04-22 17:38 | 9.64443 | 176.28719 | 31898 ft | 425 kts | 242° |
| 2026-04-22 17:39 | 9.62217 | 176.24285 | 31897 ft | 425 kts | 242° |
| 2026-04-22 17:40 | 9.58196 | 176.16279 | 31893 ft | 426 kts | 242° |
| 2026-04-22 17:40 | 9.55507 | 176.10929 | 31895 ft | 426 kts | 242° |
| 2026-04-22 17:41 | 9.52816 | 176.05577 | 31891 ft | 426 kts | 242° |
| 2026-04-22 17:41 | 9.50125 | 176.00227 | 31894 ft | 426 kts | 242° |
| 2026-04-22 17:42 | 9.47435 | 175.94882 | 31895 ft | 426 kts | 242° |
| 2026-04-22 17:42 | 9.44743 | 175.89534 | 31899 ft | 426 kts | 242° |
| 2026-04-22 17:43 | 9.42047 | 175.84183 | 31893 ft | 426 kts | 242° |
| 2026-04-22 17:43 | 9.39356 | 175.78841 | 31892 ft | 426 kts | 242° |
| 2026-04-22 17:44 | 9.36653 | 175.73481 | 31894 ft | 428 kts | 242° |
| 2026-04-22 17:44 | 9.33947 | 175.68117 | 31894 ft | 428 kts | 242° |
| 2026-04-22 17:45 | 9.31246 | 175.62763 | 31899 ft | 428 kts | 242° |
| 2026-04-22 17:45 | 9.28541 | 175.57404 | 31898 ft | 428 kts | 242° |
| 2026-04-22 17:46 | 9.25836 | 175.52048 | 31895 ft | 427 kts | 242° |
| 2026-04-22 17:46 | 9.23129 | 175.46692 | 31900 ft | 427 kts | 242° |
| 2026-04-22 17:47 | 9.20421 | 175.41336 | 31891 ft | 427 kts | 242° |
| 2026-04-22 17:47 | 9.17707 | 175.35969 | 31896 ft | 429 kts | 242° |
| 2026-04-22 17:48 | 9.15007 | 175.30633 | 31893 ft | 429 kts | 242° |
| 2026-04-22 17:48 | 9.12291 | 175.25266 | 31895 ft | 429 kts | 242° |
| 2026-04-22 17:49 | 9.09572 | 175.19898 | 31896 ft | 429 kts | 242° |
| 2026-04-22 17:49 | 9.06853 | 175.14531 | 31898 ft | 429 kts | 242° |
| 2026-04-22 17:50 | 9.04134 | 175.09167 | 31891 ft | 429 kts | 242° |
| 2026-04-22 17:50 | 9.01410 | 175.03796 | 31889 ft | 429 kts | 242° |
| 2026-04-22 17:51 | 8.98681 | 174.98417 | 31893 ft | 431 kts | 242° |
| 2026-04-22 17:51 | 8.95948 | 174.93030 | 31889 ft | 430 kts | 242° |
| 2026-04-22 17:52 | 8.93214 | 174.87645 | 31891 ft | 431 kts | 242° |
| 2026-04-22 17:52 | 8.90477 | 174.82258 | 31893 ft | 430 kts | 242° |
| 2026-04-22 17:53 | 8.87741 | 174.76874 | 31889 ft | 430 kts | 242° |
| 2026-04-22 17:53 | 8.85005 | 174.71492 | 31889 ft | 430 kts | 242° |
| 2026-04-22 17:54 | 8.82268 | 174.66111 | 31887 ft | 431 kts | 242° |
| 2026-04-22 17:54 | 8.79526 | 174.60723 | 31886 ft | 432 kts | 242° |
| 2026-04-22 17:55 | 8.76780 | 174.55329 | 31886 ft | 431 kts | 242° |
| 2026-04-22 17:55 | 8.74033 | 174.49935 | 31885 ft | 432 kts | 242° |
| 2026-04-22 17:56 | 8.71301 | 174.44573 | 31884 ft | 432 kts | 242° |
| 2026-04-22 17:56 | 8.68554 | 174.39183 | 31884 ft | 432 kts | 242° |
| 2026-04-22 17:57 | 8.65805 | 174.33791 | 31883 ft | 432 kts | 242° |
| 2026-04-22 17:57 | 8.63052 | 174.28395 | 31884 ft | 432 kts | 242° |
| 2026-04-22 17:58 | 8.60293 | 174.22989 | 31885 ft | 433 kts | 242° |
| 2026-04-22 17:58 | 8.57529 | 174.17574 | 31883 ft | 433 kts | 242° |
| 2026-04-22 17:59 | 8.54766 | 174.12165 | 31882 ft | 433 kts | 242° |
| 2026-04-22 17:59 | 8.52000 | 174.06753 | 31883 ft | 433 kts | 242° |
| 2026-04-22 18:00 | 8.49704 | 174.02260 | 31883 ft | 433 kts | 242° |
| 2026-04-22 18:00 | 8.46471 | 173.95940 | 31887 ft | 433 kts | 242° |
| 2026-04-22 18:01 | 8.43706 | 173.90535 | 31889 ft | 433 kts | 242° |
| 2026-04-22 18:01 | 8.40936 | 173.85123 | 31888 ft | 435 kts | 242° |
| 2026-04-22 18:02 | 8.38161 | 173.79705 | 31884 ft | 435 kts | 242° |
| 2026-04-22 18:02 | 8.35403 | 173.74321 | 31884 ft | 435 kts | 242° |
| 2026-04-22 18:03 | 8.32625 | 173.68899 | 31887 ft | 435 kts | 242° |
| 2026-04-22 18:03 | 8.29845 | 173.63477 | 31886 ft | 435 kts | 242° |
| 2026-04-22 18:04 | 8.27060 | 173.58048 | 31885 ft | 436 kts | 242° |
| 2026-04-22 18:04 | 8.24270 | 173.52610 | 31887 ft | 436 kts | 242° |
| 2026-04-22 18:05 | 8.21477 | 173.47168 | 31883 ft | 437 kts | 242° |
| 2026-04-22 18:05 | 8.18680 | 173.41720 | 31883 ft | 437 kts | 242° |
| 2026-04-22 18:06 | 8.15883 | 173.36275 | 31886 ft | 438 kts | 242° |
| 2026-04-22 18:06 | 8.13082 | 173.30826 | 31888 ft | 437 kts | 242° |
| 2026-04-22 18:07 | 8.10282 | 173.25381 | 31884 ft | 437 kts | 242° |
| 2026-04-22 18:07 | 8.07483 | 173.19938 | 31884 ft | 437 kts | 242° |
| 2026-04-22 18:08 | 8.04686 | 173.14502 | 31889 ft | 436 kts | 242° |
| 2026-04-22 18:08 | 8.03310 | 173.11828 | 31871 ft | 421 kts | 242° |
| 2026-04-22 18:08 | 8.01986 | 173.09256 | 31861 ft | 406 kts | 242° |
| 2026-04-22 18:08 | 8.00703 | 173.06763 | 31731 ft | 395 kts | 242° |
| 2026-04-22 18:09 | 7.99444 | 173.04319 | 31328 ft | 392 kts | 242° |
| 2026-04-22 18:09 | 7.98188 | 173.01880 | 30818 ft | 392 kts | 242° |
| 2026-04-22 18:09 | 7.96931 | 172.99439 | 30312 ft | 392 kts | 242° |
| 2026-04-22 18:09 | 7.95675 | 172.97003 | 29863 ft | 391 kts | 242° |
| 2026-04-22 18:10 | 7.94439 | 172.94605 | 29361 ft | 390 kts | 242° |
| 2026-04-22 18:10 | 7.93194 | 172.92189 | 28906 ft | 387 kts | 242° |
| 2026-04-22 18:10 | 7.91957 | 172.89790 | 28499 ft | 384 kts | 242° |
| 2026-04-22 18:10 | 7.90731 | 172.87411 | 28092 ft | 381 kts | 242° |
| 2026-04-22 18:11 | 7.89514 | 172.85052 | 27698 ft | 378 kts | 242° |
| 2026-04-22 18:11 | 7.88303 | 172.82704 | 27301 ft | 375 kts | 241° |
| 2026-04-22 18:11 | 7.87104 | 172.80378 | 26910 ft | 373 kts | 241° |
| 2026-04-22 18:11 | 7.85910 | 172.78064 | 26527 ft | 371 kts | 241° |
| 2026-04-22 18:12 | 7.84723 | 172.75764 | 26143 ft | 369 kts | 241° |
| 2026-04-22 18:12 | 7.83542 | 172.73476 | 25777 ft | 367 kts | 241° |
| 2026-04-22 18:12 | 7.82748 | 172.71937 | 25527 ft | 366 kts | 241° |
| 2026-04-22 18:12 | 7.81198 | 172.68935 | 25043 ft | 363 kts | 241° |
| 2026-04-22 18:13 | 7.80033 | 172.66679 | 24684 ft | 362 kts | 241° |
| 2026-04-22 18:13 | 7.78876 | 172.64438 | 24325 ft | 360 kts | 241° |
| 2026-04-22 18:13 | 7.77722 | 172.62204 | 23973 ft | 359 kts | 241° |
| 2026-04-22 18:13 | 7.76572 | 172.59978 | 23618 ft | 357 kts | 240° |
| 2026-04-22 18:14 | 7.75425 | 172.57760 | 23230 ft | 356 kts | 241° |
| 2026-04-22 18:14 | 7.74284 | 172.55549 | 22833 ft | 354 kts | 241° |
| 2026-04-22 18:14 | 7.73150 | 172.53357 | 22479 ft | 352 kts | 241° |
| 2026-04-22 18:14 | 7.72023 | 172.51177 | 22126 ft | 349 kts | 241° |
| 2026-04-22 18:15 | 7.70896 | 172.48997 | 21797 ft | 354 kts | 241° |
| 2026-04-22 18:15 | 7.69753 | 172.46785 | 21451 ft | 358 kts | 241° |
| 2026-04-22 18:15 | 7.68600 | 172.44556 | 21099 ft | 359 kts | 241° |
| 2026-04-22 18:15 | 7.67446 | 172.42323 | 20751 ft | 358 kts | 241° |
| 2026-04-22 18:16 | 7.66295 | 172.40100 | 20409 ft | 357 kts | 241° |
| 2026-04-22 18:16 | 7.65147 | 172.37880 | 20057 ft | 357 kts | 241° |
| 2026-04-22 18:16 | 7.64002 | 172.35665 | 19713 ft | 355 kts | 241° |
| 2026-04-22 18:16 | 7.62861 | 172.33462 | 19372 ft | 354 kts | 241° |
| 2026-04-22 18:17 | 7.61727 | 172.31271 | 19028 ft | 352 kts | 241° |
| 2026-04-22 18:17 | 7.60595 | 172.29086 | 18689 ft | 351 kts | 241° |
| 2026-04-22 18:17 | 7.59485 | 172.26942 | 18356 ft | 349 kts | 241° |
| 2026-04-22 18:17 | 7.58363 | 172.24775 | 17993 ft | 348 kts | 242° |
| 2026-04-22 18:18 | 7.57230 | 172.22588 | 17620 ft | 346 kts | 242° |
| 2026-04-22 18:18 | 7.56134 | 172.20472 | 17277 ft | 344 kts | 242° |
| 2026-04-22 18:18 | 7.55031 | 172.18342 | 16943 ft | 341 kts | 242° |
| 2026-04-22 18:18 | 7.53937 | 172.16230 | 16612 ft | 339 kts | 242° |
| 2026-04-22 18:19 | 7.52849 | 172.14131 | 16293 ft | 337 kts | 242° |
| 2026-04-22 18:19 | 7.51767 | 172.12044 | 15956 ft | 335 kts | 242° |
| 2026-04-22 18:19 | 7.50693 | 172.09970 | 15634 ft | 333 kts | 242° |
| 2026-04-22 18:19 | 7.49625 | 172.07910 | 15315 ft | 331 kts | 241° |
| 2026-04-22 18:20 | 7.48564 | 172.05865 | 14996 ft | 328 kts | 242° |
| 2026-04-22 18:20 | 7.47510 | 172.03832 | 14677 ft | 327 kts | 242° |
| 2026-04-22 18:20 | 7.46460 | 172.01807 | 14360 ft | 325 kts | 242° |
| 2026-04-22 18:20 | 7.45416 | 171.99793 | 14047 ft | 324 kts | 242° |
| 2026-04-22 18:21 | 7.44374 | 171.97785 | 13732 ft | 322 kts | 242° |
| 2026-04-22 18:21 | 7.43340 | 171.95792 | 13378 ft | 320 kts | 242° |
| 2026-04-22 18:21 | 7.42310 | 171.93807 | 13040 ft | 319 kts | 242° |
| 2026-04-22 18:21 | 7.41287 | 171.91835 | 12725 ft | 316 kts | 242° |
| 2026-04-22 18:22 | 7.40271 | 171.89879 | 12412 ft | 314 kts | 242° |
| 2026-04-22 18:22 | 7.39263 | 171.87935 | 12112 ft | 312 kts | 242° |
| 2026-04-22 18:22 | 7.38261 | 171.86006 | 11803 ft | 310 kts | 241° |
| 2026-04-22 18:22 | 7.37265 | 171.84088 | 11501 ft | 308 kts | 242° |
| 2026-04-22 18:23 | 7.36275 | 171.82182 | 11208 ft | 306 kts | 242° |
| 2026-04-22 18:23 | 7.35293 | 171.80289 | 10893 ft | 305 kts | 241° |
| 2026-04-22 18:23 | 7.34313 | 171.78402 | 10598 ft | 303 kts | 242° |
| 2026-04-22 18:24 | 7.32386 | 171.74695 | 10173 ft | 293 kts | 241° |
| 2026-04-22 18:24 | 7.31451 | 171.72895 | 9979 ft | 287 kts | 242° |
| 2026-04-22 18:24 | 7.30183 | 171.69151 | 9846 ft | 291 kts | 252° |
| 2026-04-22 18:25 | 7.29580 | 171.67178 | 9860 ft | 298 kts | 252° |
| 2026-04-22 18:25 | 7.28955 | 171.65181 | 9857 ft | 299 kts | 252° |
| 2026-04-22 18:25 | 7.28319 | 171.63185 | 9824 ft | 300 kts | 252° |
| 2026-04-22 18:26 | 7.27029 | 171.59184 | 9882 ft | 300 kts | 252° |
| 2026-04-22 18:26 | 7.26385 | 171.57185 | 9813 ft | 301 kts | 251° |
| 2026-04-22 18:26 | 7.25734 | 171.55172 | 9438 ft | 304 kts | 251° |
| 2026-04-22 18:26 | 7.25078 | 171.53145 | 9050 ft | 305 kts | 251° |
| 2026-04-22 18:27 | 7.24421 | 171.51113 | 8694 ft | 305 kts | 251° |
| 2026-04-22 18:27 | 7.23762 | 171.49081 | 8353 ft | 305 kts | 252° |
| 2026-04-22 18:27 | 7.23107 | 171.47057 | 8019 ft | 304 kts | 252° |
| 2026-04-22 18:27 | 7.22452 | 171.45038 | 7690 ft | 303 kts | 252° |
| 2026-04-22 18:28 | 7.21802 | 171.43032 | 7362 ft | 302 kts | 252° |
| 2026-04-22 18:28 | 7.21152 | 171.41025 | 7017 ft | 300 kts | 252° |
| 2026-04-22 18:28 | 7.20502 | 171.39029 | 6705 ft | 299 kts | 252° |
| 2026-04-22 18:28 | 7.19860 | 171.37042 | 6382 ft | 299 kts | 252° |
| 2026-04-22 18:29 | 7.19217 | 171.35058 | 6030 ft | 298 kts | 252° |
| 2026-04-22 18:29 | 7.18794 | 171.33751 | 5791 ft | 297 kts | 252° |
| 2026-04-22 18:29 | 7.18155 | 171.31783 | 5435 ft | 294 kts | 252° |
| 2026-04-22 18:29 | 7.17523 | 171.29837 | 5084 ft | 291 kts | 252° |
| 2026-04-22 18:30 | 7.16897 | 171.27908 | 4724 ft | 288 kts | 252° |
| 2026-04-22 18:30 | 7.15670 | 171.24117 | 4047 ft | 281 kts | 252° |
| 2026-04-22 18:30 | 7.15064 | 171.22259 | 3809 ft | 277 kts | 253° |
| 2026-04-22 18:31 | 7.14471 | 171.20425 | 3590 ft | 274 kts | 252° |
| 2026-04-22 18:31 | 7.13880 | 171.18604 | 3348 ft | 273 kts | 252° |
| 2026-04-22 18:31 | 7.13289 | 171.16796 | 3114 ft | 271 kts | 252° |
| 2026-04-22 18:31 | 7.12711 | 171.15010 | 2992 ft | 264 kts | 252° |
| 2026-04-22 18:32 | 7.12156 | 171.13302 | 2978 ft | 250 kts | 252° |
| 2026-04-22 18:32 | 7.11635 | 171.11698 | 3027 ft | 231 kts | 252° |
| 2026-04-22 18:32 | 7.11145 | 171.10203 | 2992 ft | 218 kts | 250° |
| 2026-04-22 18:32 | 7.10333 | 171.08997 | 2927 ft | 203 kts | 217° |
| 2026-04-22 18:33 | 7.09074 | 171.08447 | 2929 ft | 198 kts | 184° |
| 2026-04-22 18:33 | 7.07715 | 171.08535 | 2977 ft | 197 kts | 164° |
| 2026-04-22 18:33 | 7.06373 | 171.08840 | 2997 ft | 198 kts | 163° |
| 2026-04-22 18:33 | 7.05031 | 171.09169 | 2792 ft | 199 kts | 162° |
| 2026-04-22 18:34 | 7.03753 | 171.09667 | 2397 ft | 197 kts | 138° |
| 2026-04-22 18:34 | 7.02984 | 171.10755 | 1989 ft | 190 kts | 103° |
| 2026-04-22 18:34 | 7.02953 | 171.12027 | 1805 ft | 178 kts | 76° |
| 2026-04-22 18:34 | 7.03208 | 171.13255 | 1775 ft | 180 kts | 77° |
| 2026-04-22 18:35 | 7.03467 | 171.14503 | 1830 ft | 182 kts | 76° |
| 2026-04-22 18:35 | 7.03736 | 171.15725 | 1707 ft | 178 kts | 75° |
| 2026-04-22 18:35 | 7.03995 | 171.16859 | 1551 ft | 154 kts | 75° |
| 2026-04-22 18:35 | 7.04218 | 171.17906 | 1275 ft | 159 kts | 77° |
| 2026-04-22 18:36 | 7.04466 | 171.19057 | 1252 ft | 178 kts | 75° |
| 2026-04-22 18:36 | 7.04784 | 171.20269 | 1145 ft | 179 kts | 73° |
| 2026-04-22 18:36 | 7.05095 | 171.21416 | 915 ft | 164 kts | 74° |
| 2026-04-22 18:36 | 7.05350 | 171.22504 | 741 ft | 153 kts | 74° |
| 2026-04-22 18:37 | 7.05626 | 171.23527 | 498 ft | 154 kts | 75° |
| 2026-04-22 18:37 | 7.05864 | 171.24590 | 297 ft | 155 kts | 75° |
| 2026-04-22 18:37 | 7.06123 | 171.25640 | 131 ft | 153 kts | 74° |
| 2026-04-22 18:37 | 7.06364 | 171.26649 | 2 ft | 136 kts | 75° |
| 2026-04-22 18:38 | 7.06548 | 171.27380 | 4 ft | 76 kts | 76° |
| 2026-04-22 18:38 | 7.06649 | 171.27802 | 5 ft | 38 kts | 76° |
| 2026-04-22 18:38 | 7.06692 | 171.27982 | 3 ft | 20 kts | 77° |
| 2026-04-22 18:39 | 7.06743 | 171.28087 | 5 ft | 6 kts | 31° |
| 2026-04-22 18:39 | 7.06782 | 171.28099 | 6 ft | 6 kts | 14° |
| 2026-04-22 18:39 | 7.06820 | 171.28111 | 7 ft | 6 kts | 31° |
| 2026-04-22 18:39 | 7.06845 | 171.28144 | 7 ft | 7 kts | 61° |
| 2026-04-22 18:40 | 7.06855 | 171.28178 | 9 ft | 1 kts | 92° |
| 2026-04-22 18:40 | 7.06850 | 171.28195 | 8 ft | 2 kts | 114° |
| 2026-04-22 18:40 | 7.06849 | 171.28197 | 7 ft | 0 kts | 115° |